PGUM/GUM METAR and TAF weather

Enter ICAO airport designator
Station Type Date Time Source
PGUM METAR 2022/09/26 07:54 UTC NOAA

PGUM 260754Z 16004KT 10SM CLR 29/25 A2981 RMK AO2 SLP086 T02890250


Station Type Date Time Source
PGUM Decoded METAR 2022/09/26 07:54 UTC NOAA

Agana, Guam International Airport, GU, United States (PGUM) 13-29N 144-48E
Sep 26, 2022 - 03:54 AM EDT / 2022.09.26 0754 UTC
Wind: from the SSE (160 degrees) at 5 MPH (4 KT):0
Visibility: 10 mile(s):0
Sky conditions: clear
Temperature: 84.0 F (28.9 C)
Dew Point: 77.0 F (25.0 C)
Relative Humidity: 79%
Pressure (altimeter): 29.81 in. Hg (1009 hPa)
ob: PGUM 260754Z 16004KT 10SM CLR 29/25 A2981 RMK AO2 SLP086 T02890250
cycle: 8

Station Type Date Time Source
PGUM TAF 2022/09/26 06:25 UTC NOAA

TAF PGUM 260520Z 2606/2712 16011KT P6SM VCSH SCT020 BKN120

Example: see airport list